sensor_id;sensor_type;location;lat;lon;timestamp;P1;durP1;ratioP1;P2;durP2;ratioP2
38397;SDS011;24179;52.094;4.408;2024-02-16T18:10:50;20.25;;;7.20;;
38397;SDS011;24179;52.094;4.408;2024-02-16T18:13:52;25.92;;;7.78;;
38397;SDS011;24179;52.094;4.408;2024-02-16T18:16:52;17.20;;;6.60;;
38397;SDS011;24179;52.094;4.408;2024-02-16T18:19:53;14.53;;;5.70;;
38397;SDS011;24179;52.094;4.408;2024-02-16T18:22:54;11.57;;;5.10;;
38397;SDS011;24179;52.094;4.408;2024-02-16T18:25:56;15.73;;;5.90;;
38397;SDS011;24179;52.094;4.408;2024-02-16T18:28:58;10.02;;;5.53;;
38397;SDS011;24179;52.094;4.408;2024-02-16T18:31:59;11.80;;;5.40;;
38397;SDS011;24179;52.094;4.408;2024-02-16T18:34:59;21.52;;;6.18;;
38397;SDS011;24179;52.094;4.408;2024-02-16T18:38:00;17.00;;;6.80;;
38397;SDS011;24179;52.094;4.408;2024-02-16T18:44:03;8.60;;;5.27;;
38397;SDS011;24179;52.094;4.408;2024-02-16T18:47:04;19.13;;;6.43;;
38397;SDS011;24179;52.094;4.408;2024-02-16T18:50:05;9.17;;;5.37;;
38397;SDS011;24179;52.094;4.408;2024-02-16T18:53:06;13.80;;;6.20;;
38397;SDS011;24179;52.094;4.408;2024-02-16T18:59:08;15.67;;;5.90;;
38397;SDS011;24179;52.094;4.408;2024-02-16T19:02:09;15.53;;;5.77;;
38397;SDS011;24179;52.094;4.408;2024-02-16T19:05:10;14.23;;;5.43;;
38397;SDS011;24179;52.094;4.408;2024-02-16T19:08:10;16.33;;;6.40;;
38397;SDS011;24179;52.094;4.408;2024-02-16T19:11:12;19.08;;;6.03;;
38397;SDS011;24179;52.094;4.408;2024-02-16T19:14:13;19.67;;;6.30;;
38397;SDS011;24179;52.094;4.408;2024-02-16T19:17:13;15.30;;;6.00;;
38397;SDS011;24179;52.094;4.408;2024-02-16T19:20:14;11.80;;;6.00;;
38397;SDS011;24179;52.094;4.408;2024-02-16T19:23:15;18.03;;;6.60;;
38397;SDS011;24179;52.094;4.408;2024-02-16T19:26:16;19.50;;;6.38;;
38397;SDS011;24179;52.094;4.408;2024-02-16T19:29:16;22.10;;;6.40;;
38397;SDS011;24179;52.094;4.408;2024-02-16T19:32:17;19.67;;;5.80;;
38397;SDS011;24179;52.094;4.408;2024-02-16T19:35:18;14.03;;;5.70;;
38397;SDS011;24179;52.094;4.408;2024-02-16T19:38:21;27.90;;;8.52;;
38397;SDS011;24179;52.094;4.408;2024-02-16T19:41:24;16.88;;;6.18;;
38397;SDS011;24179;52.094;4.408;2024-02-16T19:44:24;21.10;;;6.47;;
38397;SDS011;24179;52.094;4.408;2024-02-16T19:47:27;17.52;;;6.20;;
38397;SDS011;24179;52.094;4.408;2024-02-16T19:50:28;20.83;;;6.53;;
38397;SDS011;24179;52.094;4.408;2024-02-16T19:53:29;22.88;;;6.93;;
38397;SDS011;24179;52.094;4.408;2024-02-16T19:56:32;19.58;;;6.32;;
38397;SDS011;24179;52.094;4.408;2024-02-16T19:59:32;19.67;;;6.27;;
38397;SDS011;24179;52.094;4.408;2024-02-16T20:02:33;19.60;;;6.50;;
38397;SDS011;24179;52.094;4.408;2024-02-16T20:05:36;20.83;;;6.50;;
38397;SDS011;24179;52.094;4.408;2024-02-16T20:08:36;14.77;;;5.40;;
38397;SDS011;24179;52.094;4.408;2024-02-16T20:11:37;14.60;;;5.75;;
38397;SDS011;24179;52.094;4.408;2024-02-16T20:14:38;24.73;;;7.25;;
38397;SDS011;24179;52.094;4.408;2024-02-16T20:17:39;14.73;;;5.33;;
38397;SDS011;24179;52.094;4.408;2024-02-16T20:20:40;18.60;;;5.83;;
38397;SDS011;24179;52.094;4.408;2024-02-16T20:23:41;15.87;;;6.43;;
38397;SDS011;24179;52.094;4.408;2024-02-16T20:26:44;15.02;;;5.80;;
38397;SDS011;24179;52.094;4.408;2024-02-16T20:29:45;23.67;;;6.95;;
38397;SDS011;24179;52.094;4.408;2024-02-16T20:32:48;22.90;;;7.05;;
38397;SDS011;24179;52.094;4.408;2024-02-16T20:35:50;19.77;;;6.15;;
38397;SDS011;24179;52.094;4.408;2024-02-16T20:38:51;22.50;;;5.53;;
38397;SDS011;24179;52.094;4.408;2024-02-16T20:41:54;20.27;;;6.28;;
38397;SDS011;24179;52.094;4.408;2024-02-16T20:44:54;20.47;;;6.13;;
38397;SDS011;24179;52.094;4.408;2024-02-16T20:47:57;11.50;;;5.00;;
38397;SDS011;24179;52.094;4.408;2024-02-16T20:50:59;14.13;;;5.15;;
38397;SDS011;24179;52.094;4.408;2024-02-16T20:54:02;18.55;;;5.72;;
38397;SDS011;24179;52.094;4.408;2024-02-16T21:01:04;15.67;;;4.90;;
38397;SDS011;24179;52.094;4.408;2024-02-16T21:12:09;15.07;;;5.13;;
38397;SDS011;24179;52.094;4.408;2024-02-16T21:19:07;19.45;;;5.72;;
38397;SDS011;24179;52.094;4.408;2024-02-16T21:22:08;15.57;;;5.53;;
38397;SDS011;24179;52.094;4.408;2024-02-16T21:25:14;25.23;;;6.53;;
38397;SDS011;24179;52.094;4.408;2024-02-16T21:28:17;25.08;;;6.80;;
38397;SDS011;24179;52.094;4.408;2024-02-16T21:31:23;21.13;;;5.53;;
38397;SDS011;24179;52.094;4.408;2024-02-16T21:34:23;17.05;;;5.25;;
38397;SDS011;24179;52.094;4.408;2024-02-16T21:37:24;24.83;;;6.80;;
38397;SDS011;24179;52.094;4.408;2024-02-16T21:40:25;16.87;;;5.67;;
38397;SDS011;24179;52.094;4.408;2024-02-16T21:43:26;20.00;;;6.05;;
38397;SDS011;24179;52.094;4.408;2024-02-16T21:46:27;22.97;;;5.47;;
38397;SDS011;24179;52.094;4.408;2024-02-16T21:49:28;14.88;;;4.85;;
38397;SDS011;24179;52.094;4.408;2024-02-16T21:52:29;20.63;;;5.83;;
38397;SDS011;24179;52.094;4.408;2024-02-16T21:55:30;23.47;;;6.00;;
38397;SDS011;24179;52.094;4.408;2024-02-16T21:58:30;10.50;;;4.83;;
38397;SDS011;24179;52.094;4.408;2024-02-16T22:01:33;24.70;;;6.30;;
38397;SDS011;24179;52.094;4.408;2024-02-16T22:04:34;20.42;;;5.93;;
38397;SDS011;24179;52.094;4.408;2024-02-16T22:07:35;11.13;;;4.63;;
38397;SDS011;24179;52.094;4.408;2024-02-16T22:10:35;20.27;;;5.80;;
38397;SDS011;24179;52.094;4.408;2024-02-16T22:13:37;18.75;;;5.53;;
38397;SDS011;24179;52.094;4.408;2024-02-16T22:16:38;12.73;;;4.80;;
38397;SDS011;24179;52.094;4.408;2024-02-16T22:19:39;18.70;;;5.57;;
38397;SDS011;24179;52.094;4.408;2024-02-16T22:22:39;13.50;;;4.43;;
38397;SDS011;24179;52.094;4.408;2024-02-16T22:25:40;17.67;;;5.33;;
38397;SDS011;24179;52.094;4.408;2024-02-16T22:28:41;17.70;;;4.80;;
38397;SDS011;24179;52.094;4.408;2024-02-16T22:31:42;18.80;;;5.13;;
38397;SDS011;24179;52.094;4.408;2024-02-16T22:34:42;17.63;;;5.13;;
38397;SDS011;24179;52.094;4.408;2024-02-16T22:37:43;17.80;;;4.77;;
38397;SDS011;24179;52.094;4.408;2024-02-16T22:40:43;13.70;;;4.80;;
38397;SDS011;24179;52.094;4.408;2024-02-16T22:43:44;21.60;;;5.50;;
38397;SDS011;24179;52.094;4.408;2024-02-16T22:46:47;8.88;;;3.92;;
38397;SDS011;24179;52.094;4.408;2024-02-16T22:49:47;8.07;;;3.57;;
38397;SDS011;24179;52.094;4.408;2024-02-16T22:52:48;10.33;;;3.50;;
38397;SDS011;24179;52.094;4.408;2024-02-16T22:55:49;7.28;;;3.42;;
38397;SDS011;24179;52.094;4.408;2024-02-16T22:58:50;9.07;;;3.80;;
38397;SDS011;24179;52.094;4.408;2024-02-16T23:01:51;12.87;;;4.10;;
38397;SDS011;24179;52.094;4.408;2024-02-16T23:04:51;7.73;;;3.40;;
38397;SDS011;24179;52.094;4.408;2024-02-16T23:07:53;19.48;;;5.20;;
38397;SDS011;24179;52.094;4.408;2024-02-16T23:10:54;7.13;;;3.13;;
38397;SDS011;24179;52.094;4.408;2024-02-16T23:13:55;8.48;;;3.63;;
38397;SDS011;24179;52.094;4.408;2024-02-16T23:16:56;13.53;;;3.70;;
38397;SDS011;24179;52.094;4.408;2024-02-16T23:19:57;7.30;;;3.53;;
38397;SDS011;24179;52.094;4.408;2024-02-16T23:26:01;10.35;;;3.08;;
38397;SDS011;24179;52.094;4.408;2024-02-16T23:29:02;8.15;;;3.28;;
38397;SDS011;24179;52.094;4.408;2024-02-16T23:32:03;7.37;;;3.07;;
38397;SDS011;24179;52.094;4.408;2024-02-16T23:35:05;11.05;;;3.53;;
38397;SDS011;24179;52.094;4.408;2024-02-16T23:38:07;5.30;;;3.15;;
38397;SDS011;24179;52.094;4.408;2024-02-16T23:41:08;10.03;;;3.17;;
38397;SDS011;24179;52.094;4.408;2024-02-16T23:44:09;9.77;;;3.37;;
38397;SDS011;24179;52.094;4.408;2024-02-16T23:47:09;5.73;;;3.17;;
38397;SDS011;24179;52.094;4.408;2024-02-16T23:50:10;7.50;;;2.87;;
38397;SDS011;24179;52.094;4.408;2024-02-16T23:53:12;13.43;;;4.13;;
38397;SDS011;24179;52.094;4.408;2024-02-16T23:56:13;8.30;;;3.47;;
38397;SDS011;24179;52.094;4.408;2024-02-16T23:59:13;8.60;;;3.40;;
